Terminal Aerodrome Forecast
Issued by NWS

Home | Current Version | Previous Version | Graphics & Text | Print | Product List | Glossary On
Versions: 1 2 3 4 5 6 7 8 9 10 11 12 13 14 15 16 17 18 19 20 21 22 23 24 25 26
803
FTUS43 KICT 270126 AAA
TAFRSL
TAF AMD
KRSL 270126Z 2701/2724 04010KT P6SM VCSH SCT005 OVC030
      TEMPO 2701/2703 OVC005
     FM270300 01009KT 5SM BR OVC007
     FM270800 35008KT 3SM BR OVC004
     FM271600 36007KT P6SM SCT020=

USA.gov is the U.S. government's official web portal to all federal, state and local government web resources and services.